Flight Track Log - Related Links

Times and Time Zones

All times are in EDT time to prevent confusion due to time zone crossing. See the JBU917 flight status page for this flight to view local times or setup timezone preferences in your user account.

Time Position Orientation Groundspeed Altitude Reporting Facility
EDT Latitude Longitude Course Direction KTS MPH feet Rate Location/Type
Sat 06:01:00 AM 42.3667 -70.9833 160° South 158 182 800  Level KA90
Sat 06:03:27 AM 42.3908 -70.8069 79° East 234 269 6,500 2,667 Climbing Boston Center
Sat 06:04:00 AM 42.3063 -70.6925 164° South  Level FlightAware Approximate
Sat 06:04:27 AM 42.3561 -70.7150 117° Southeast 251 289 10,000  Level Boston Center
Sat 06:05:00 AM 42.2574 -70.6620 160° South  Level FlightAware Approximate
Sat 06:05:27 AM 42.2761 -70.6750 160° South 232 267 12,300  Level Boston Center
Sat 06:06:00 AM 42.2062 -70.6364 160° South  Level FlightAware Approximate
Sat 06:06:27 AM 42.1839 -70.6356 162° South 309 356 14,800  Level Boston Center
Sat 06:07:27 AM 42.0858 -70.6386 181° South 332 382 17,400 2,400 Climbing Boston Center
Sat 06:08:27 AM 41.9742 -70.6892 199° South 359 413 19,600 2,150 Climbing Boston Center
Sat 06:09:27 AM 41.8706 -70.7339 198° South 382 440 21,700 1,200 Climbing Boston Center
Sat 06:10:27 AM 41.7672 -70.7922 203° Southwest 400 460 22,000 150 Climbing Boston Center
Sat 06:11:27 AM 41.6831 -70.8667 213° Southwest 405 466 22,000  Level Boston Center
Sat 06:12:27 AM 41.5861 -70.9414 210° Southwest 410 472 22,000  Level Boston Center
Sat 06:13:27 AM 41.5039 -71.0375 221° Southwest 410 472 22,000  Level Boston Center
Sat 06:14:27 AM 41.4364 -71.1497 231° Southwest 388 447 22,000  Level Boston Center
Sat 06:15:27 AM 41.3667 -71.2619 230° Southwest 393 452 22,000  Level Boston Center
Sat 06:16:27 AM 41.3011 -71.3764 233° Southwest 393 452 22,000  Level Boston Center
Sat 06:17:27 AM 41.2292 -71.4853 229° Southwest 393 452 22,000  Level Boston Center
Sat 06:18:27 AM 41.1636 -71.6047 234° Southwest 393 452 22,000  Level Boston Center
Sat 06:19:27 AM 41.1436 -71.7483 260° West 377 434 22,000  Level Boston Center
Sat 06:20:27 AM 41.1278 -71.8917 262° West 385 443 22,000 -300 Level Boston Center
Sat 06:21:27 AM 41.1097 -72.0406 261° West 395 455 21,400 -1,150 Descending Boston Center
Sat 06:22:27 AM 41.0850 -72.1758 256° West 395 455 19,700 -1,750 Descending Boston Center
Sat 06:23:27 AM 41.0542 -72.3025 252° West 379 436 17,900 -1,950 Descending Boston Center
Sat 06:24:27 AM 41.0228 -72.4292 252° West 373 429 15,800 -1,950 Descending Boston Center
Sat 06:25:27 AM 40.9936 -72.5500 252° West 366 421 14,000 -1,800 Descending Boston Center
Sat 06:26:27 AM 40.9642 -72.6683 252° West 353 406 12,200 -800 Descending Boston Center
Sat 06:27:57 AM 40.9167 -72.8167 247° West 272 313 12,000 -83 Descending New York TRACON
Sat 06:28:51 AM 40.8667 -72.8667 217° Southwest 273 314 12,000 -842 Level New York TRACON
Sat 06:29:51 AM 40.8000 -72.9167 210° Southwest 268 308 10,400 -1,579 Descending New York TRACON
Sat 06:30:45 AM 40.7500 -72.9667 217° Southwest 262 302 9,000 -1,611 Descending New York TRACON
Sat 06:31:39 AM 40.7000 -73.0167 217° Southwest 261 300 7,500 -1,737 Descending New York TRACON
Sat 06:32:39 AM 40.6500 -73.1000 232° Southwest 260 299 5,700 -1,722 Descending New York TRACON
Sat 06:33:27 AM 40.6167 -73.1667 237° Southwest 263 303 4,400 -1,529 Descending New York TRACON
Sat 06:34:21 AM 40.5833 -73.2333 237° Southwest 259 298 3,100 -737 Descending New York TRACON
Sat 06:35:21 AM 40.5500 -73.3167 242° Southwest 258 297 3,000 -50 Descending New York TRACON
Sat 06:36:21 AM 40.5167 -73.4000 242° Southwest 260 299 3,000  Level New York TRACON
Sat 06:37:21 AM 40.4833 -73.4833 242° Southwest 258 297 3,000  Level New York TRACON
Sat 06:38:15 AM 40.4500 -73.5500 237° Southwest 261 300 3,000  Level New York TRACON
Sat 06:39:15 AM 40.4167 -73.6333 242° Southwest 256 295 3,000  Level New York TRACON
Sat 06:40:15 AM 40.4167 -73.7167 270° West 217 250 3,000  Level New York TRACON
Sat 06:41:15 AM 40.4000 -73.8000 255° West 219 252 3,000 -300 Level New York TRACON
Sat 06:42:15 AM 40.4167 -73.8667 288° West 238 274 2,400 -526 Descending New York TRACON
Sat 06:43:09 AM 40.4667 -73.8833 346° North 233 268 2,000 -211 Descending New York TRACON
Sat 06:44:09 AM 40.5167 -73.8500 27° Northeast 193 222 2,000 -350 Level New York TRACON
Sat 06:45:09 AM 40.5667 -73.8167 27° Northeast 162 186 1,300 -700 Descending New York TRACON
Sat 06:46:09 AM 40.6000 -73.7833 37° Northeast 132 152 600 -700 Descending New York TRACON

Login

Don't have an account? Register now (free) for customized features, flight alerts, and more!